Huron Regional Airport
KHON : now visible

Airfield :











YOU CAN JOIN US ON...

 
LOGIN :

Register | Disclaimer

   EN    FR    IT 

 









Legend :    VFR   Marginal VFR   IFR   Intensive IFR   Very Intensive IFR
Visi :
Ceiling :
>= 8 km
>= 3000ft
5 to 8 km
1000 to 3000 ft
1500m to 5 km
500 to 1000 ft
800 to 1500m
200 to 500 ft
< 800m
< 200 ft
Symbols :   Thunderstorms  Fog  Heavy snow  Heavy precipitations  Wind > 20 kt







- Airport Elevation : 1289 ft
- IATA code : HON


KHON - Huron Regional

CURRENT METAR :
  • 210355Z AUTO 12011KT 10SM CLR 19/08 A2952 RMK AO2 SLP993 T01890083

EXPIRED METARs :
  • 210255Z AUTO 12011KT 10SM CLR 19/09 A2953 RMK AO2 SLP997 T01890094 56002
  • 210155Z AUTO 12010KT 10SM CLR 21/11 A2953 RMK AO2 SLP998 T02110106

TAF KHON
Valid from the 21 at 00:00 until the 22 at 00:00 UTC


202338Z 2100/2124 14010KT P6SM FEW250
FM210600 02011KT P6SM SCT200
FM211500 03012G20KT P6SM BKN150
FM212100 03018G28KT P6SM BKN020
KZMP FIR / North America



MET'MAP, your aeronautical weather chart ! - Copyright ORBIFLY December 2007 - Disclaimer

ORBIFLY MET'MAP TEAM :

Programming & Development : Alexandra Zaïnal
Concept & Development : Baudouin d'Aumeries
Co-Development & Prog : Marc-Olivier Méhu
Technical & hardware support : Manuel Goepfert

Contact : metmap@orbifly.com




SOURCES & CREDITS :

   NOAA       Earth
Advisory